Time;durP1;ratioP1;P1;durP2;ratioP2;P2;SDS_P1;SDS_P2;PMS_P1;PMS_P2;Temp;Humidity;BMP_temperature;BMP_pressure;BME280_temperature;BME280_humidity;BME280_pressure;Samples;Min_cycle;Max_cycle;Signal;HPM_P1;HPM_P2
2023/02/04 00:01:35;;;;;;;16.58;2.50;;;;;;;;;;5055001;28;20056;-86
2023/02/04 00:04:02;;;;;;;16.45;2.38;;;;;;;;;;5053552;28;20051;-87
2023/02/04 00:06:30;;;;;;;14.52;2.58;;;;;;;;;;5054814;28;20083;-85
2023/02/04 00:08:57;;;;;;;9.95;1.88;;;;;;;;;;5054923;28;20087;-85
2023/02/04 00:11:24;;;;;;;9.02;2.00;;;;;;;;;;5053560;28;20489;-86
2023/02/04 00:13:51;;;;;;;10.05;2.00;;;;;;;;;;5053643;28;20049;-86
2023/02/04 00:16:18;;;;;;;12.82;1.98;;;;;;;;;;5037832;28;20049;-86
2023/02/04 00:18:46;;;;;;;13.57;2.53;;;;;;;;;;5033246;28;20060;-86
2023/02/04 00:21:13;;;;;;;15.18;2.50;;;;;;;;;;5034685;28;20133;-86
2023/02/04 00:23:40;;;;;;;14.18;2.03;;;;;;;;;;5033452;28;20049;-86
2023/02/04 00:26:08;;;;;;;14.52;1.95;;;;;;;;;;5034410;28;20469;-85
2023/02/04 00:28:35;;;;;;;9.73;1.60;;;;;;;;;;5033331;28;20050;-85
2023/02/04 00:31:02;;;;;;;11.38;1.83;;;;;;;;;;5033250;28;20061;-86
2023/02/04 00:33:29;;;;;;;7.78;1.73;;;;;;;;;;5033279;28;20107;-86
2023/02/04 00:35:57;;;;;;;11.40;1.70;;;;;;;;;;5033247;28;20072;-86
2023/02/04 00:38:24;;;;;;;12.95;2.03;;;;;;;;;;5033035;28;20060;-86
2023/02/04 00:40:51;;;;;;;8.27;1.80;;;;;;;;;;5032974;28;20045;-86
2023/02/04 00:43:18;;;;;;;13.85;2.17;;;;;;;;;;5033142;28;20136;-86
2023/02/04 00:45:45;;;;;;;11.13;1.90;;;;;;;;;;5034138;28;20077;-87
2023/02/04 00:48:13;;;;;;;10.85;1.80;;;;;;;;;;5032916;28;20140;-86
2023/02/04 00:50:40;;;;;;;10.15;2.33;;;;;;;;;;5034015;28;20045;-86
2023/02/04 00:53:07;;;;;;;10.48;1.60;;;;;;;;;;5037655;28;20053;-86
2023/02/04 00:55:34;;;;;;;13.52;2.03;;;;;;;;;;5032989;28;20413;-85
2023/02/04 00:58:01;;;;;;;20.85;3.53;;;;;;;;;;5033022;28;20552;-86
2023/02/04 01:00:29;;;;;;;11.13;1.70;;;;;;;;;;5032840;28;20087;-86
2023/02/04 01:02:56;;;;;;;10.18;1.90;;;;;;;;;;5032823;28;20088;-86
2023/02/04 01:05:24;;;;;;;13.82;2.42;;;;;;;;;;5033767;28;20480;-86
2023/02/04 01:07:52;;;;;;;9.15;1.67;;;;;;;;;;5032793;28;20057;-85
2023/02/04 01:10:19;;;;;;;13.02;1.80;;;;;;;;;;5032767;28;20054;-87
2023/02/04 01:12:46;;;;;;;10.13;2.03;;;;;;;;;;5033563;28;20045;-86
2023/02/04 01:15:14;;;;;;;8.32;1.80;;;;;;;;;;5032460;28;20053;-87
2023/02/04 01:17:41;;;;;;;14.20;2.08;;;;;;;;;;5033486;28;20045;-86
2023/02/04 01:20:09;;;;;;;9.40;2.15;;;;;;;;;;5032191;28;20057;-86
2023/02/04 01:22:36;;;;;;;10.63;1.40;;;;;;;;;;5033540;28;20550;-86
2023/02/04 01:25:03;;;;;;;11.35;2.25;;;;;;;;;;5032359;28;20413;-87
2023/02/04 01:27:30;;;;;;;12.63;2.30;;;;;;;;;;5033440;28;20132;-86
2023/02/04 01:29:58;;;;;;;11.45;1.70;;;;;;;;;;5033257;28;20041;-86
2023/02/04 01:32:25;;;;;;;19.65;2.47;;;;;;;;;;5033339;28;20056;-86
2023/02/04 01:34:52;;;;;;;14.15;2.20;;;;;;;;;;5033274;28;20493;-86
2023/02/04 01:37:20;;;;;;;9.35;1.65;;;;;;;;;;5032132;28;20209;-86
2023/02/04 01:39:47;;;;;;;13.82;2.08;;;;;;;;;;5032565;28;20050;-86
2023/02/04 01:42:14;;;;;;;13.40;2.15;;;;;;;;;;5032307;28;20144;-85
2023/02/04 01:44:42;;;;;;;30.88;3.20;;;;;;;;;;5033182;28;20430;-87
2023/02/04 01:47:09;;;;;;;12.85;2.20;;;;;;;;;;5033388;28;20041;-86
2023/02/04 01:49:36;;;;;;;14.77;2.42;;;;;;;;;;5032242;28;20145;-86
2023/02/04 01:52:04;;;;;;;11.07;2.10;;;;;;;;;;5032177;28;20095;-87
2023/02/04 01:54:31;;;;;;;10.68;1.98;;;;;;;;;;5032077;28;20047;-86
2023/02/04 01:56:58;;;;;;;13.65;2.28;;;;;;;;;;5031955;28;20054;-86
2023/02/04 01:59:26;;;;;;;12.70;2.13;;;;;;;;;;5032114;28;20056;-84
2023/02/04 02:01:53;;;;;;;14.02;2.30;;;;;;;;;;5033282;28;20482;-88
2023/02/04 02:04:29;;;;;;;11.13;1.88;;;;;;;;;;5034473;28;20509;-86
2023/02/04 02:07:02;;;;;;;9.73;2.00;;;;;;;;;;5039124;28;20485;-86
2023/02/04 02:09:30;;;;;;;7.55;2.00;;;;;;;;;;5036617;28;20045;-86
2023/02/04 02:11:57;;;;;;;9.88;2.17;;;;;;;;;;5037013;28;20140;-86
2023/02/04 02:14:25;;;;;;;16.27;2.03;;;;;;;;;;5035915;28;20045;-87
2023/02/04 02:16:52;;;;;;;21.92;3.63;;;;;;;;;;5035541;28;20064;-86
2023/02/04 02:19:23;;;;;;;12.13;1.70;;;;;;;;;;5035649;28;20524;-86
2023/02/04 02:22:02;;;;;;;12.90;1.98;;;;;;;;;;5036795;28;20057;-87
2023/02/04 02:24:31;;;;;;;12.38;2.17;;;;;;;;;;5036630;28;20140;-86
2023/02/04 02:27:00;;;;;;;8.90;1.70;;;;;;;;;;5035786;28;20485;-87
2023/02/04 02:29:28;;;;;;;14.65;2.33;;;;;;;;;;5036800;28;20501;-86
2023/02/04 02:31:58;;;;;;;11.48;1.85;;;;;;;;;;5035540;28;20506;-86
2023/02/04 02:34:27;;;;;;;18.20;2.15;;;;;;;;;;5035521;28;20132;-86
2023/02/04 02:36:54;;;;;;;14.20;2.17;;;;;;;;;;5035689;28;20409;-87
2023/02/04 02:39:22;;;;;;;14.95;2.67;;;;;;;;;;5035320;28;20050;-86
2023/02/04 02:41:49;;;;;;;9.02;0.90;;;;;;;;;;5036461;28;20136;-85
2023/02/04 02:44:17;;;;;;;3.90;0.45;;;;;;;;;;5036379;28;20048;-86
2023/02/04 02:46:45;;;;;;;3.78;0.35;;;;;;;;;;5035447;28;20049;-87
2023/02/04 02:49:17;;;;;;;2.65;0.45;;;;;;;;;;5035447;28;20050;-87
2023/02/04 02:51:44;;;;;;;1.55;0.45;;;;;;;;;;5033892;28;20205;-87
2023/02/04 02:54:24;;;;;;;3.05;0.70;;;;;;;;;;5035445;28;20521;-86
2023/02/04 02:56:51;;;;;;;3.72;0.70;;;;;;;;;;5035199;28;20414;-86
2023/02/04 02:59:19;;;;;;;1.75;0.50;;;;;;;;;;5035150;28;20049;-86
2023/02/04 03:01:48;;;;;;;1.23;0.50;;;;;;;;;;5034940;28;20056;-86
2023/02/04 03:04:16;;;;;;;0.93;0.60;;;;;;;;;;5035942;28;20500;-86
2023/02/04 03:06:44;;;;;;;2.78;0.88;;;;;;;;;;5035932;28;20509;-86
2023/02/04 03:09:11;;;;;;;3.88;0.93;;;;;;;;;;5034893;28;20048;-86
2023/02/04 03:11:39;;;;;;;0.98;0.93;;;;;;;;;;5034987;28;20049;-86
2023/02/04 03:14:06;;;;;;;1.58;0.88;;;;;;;;;;5034598;28;20468;-86
2023/02/04 03:16:35;;;;;;;3.95;1.13;;;;;;;;;;5035910;28;20056;-86
2023/02/04 03:19:04;;;;;;;1.17;0.77;;;;;;;;;;5039749;28;20063;-86
2023/02/04 03:21:31;;;;;;;1.58;1.10;;;;;;;;;;5036472;28;20084;-87
2023/02/04 03:23:58;;;;;;;2.35;0.90;;;;;;;;;;5034688;28;20049;-87
2023/02/04 03:26:26;;;;;;;1.83;1.15;;;;;;;;;;5034753;28;20427;-87
2023/02/04 03:28:54;;;;;;;1.20;0.90;;;;;;;;;;5034606;28;20042;-86
2023/02/04 03:31:21;;;;;;;1.50;1.17;;;;;;;;;;5034596;28;20056;-87
2023/02/04 03:33:48;;;;;;;3.13;1.40;;;;;;;;;;5034748;28;20060;-86
2023/02/04 03:36:16;;;;;;;1.40;1.30;;;;;;;;;;5034515;28;20047;-87
2023/02/04 03:38:43;;;;;;;2.35;1.48;;;;;;;;;;5034454;28;20088;-86
2023/02/04 03:41:10;;;;;;;1.40;1.30;;;;;;;;;;5034479;28;20103;-87
2023/02/04 03:43:38;;;;;;;2.63;1.60;;;;;;;;;;5034732;28;20085;-87
2023/02/04 03:46:05;;;;;;;2.25;1.48;;;;;;;;;;5034596;28;20071;-87
2023/02/04 03:48:32;;;;;;;2.25;1.75;;;;;;;;;;5034513;28;20057;-87
2023/02/04 03:50:59;;;;;;;1.48;1.38;;;;;;;;;;5035317;28;20049;-87
2023/02/04 03:53:26;;;;;;;10.93;2.13;;;;;;;;;;5033937;28;20060;-87
2023/02/04 03:55:54;;;;;;;3.00;1.80;;;;;;;;;;5035089;28;20560;-87
2023/02/04 03:58:21;;;;;;;2.20;2.00;;;;;;;;;;5034140;28;20482;-87
2023/02/04 04:00:48;;;;;;;4.05;2.03;;;;;;;;;;5035096;28;20399;-88
2023/02/04 04:03:16;;;;;;;3.53;2.42;;;;;;;;;;5034141;28;20132;-87
2023/02/04 04:05:43;;;;;;;2.38;1.90;;;;;;;;;;5034207;28;20057;-87
2023/02/04 04:08:10;;;;;;;3.83;2.47;;;;;;;;;;5034164;28;20460;-87
2023/02/04 04:10:37;;;;;;;3.15;2.10;;;;;;;;;;5035164;28;20199;-87
2023/02/04 04:13:07;;;;;;;4.40;2.10;;;;;;;;;;5034979;28;20046;-87
2023/02/04 04:15:35;;;;;;;4.30;2.30;;;;;;;;;;5034879;28;20063;-87
2023/02/04 04:18:03;;;;;;;2.15;1.95;;;;;;;;;;5034123;28;20076;-87
2023/02/04 04:20:31;;;;;;;2.28;2.10;;;;;;;;;;5033436;28;20128;-87
2023/02/04 04:22:58;;;;;;;6.15;2.10;;;;;;;;;;5034172;28;20049;-87
2023/02/04 04:25:26;;;;;;;2.72;1.95;;;;;;;;;;5033554;28;20080;-87
2023/02/04 04:27:53;;;;;;;2.42;2.33;;;;;;;;;;5033777;28;20057;-87
2023/02/04 04:30:20;;;;;;;3.65;2.25;;;;;;;;;;5034186;28;20072;-88
2023/02/04 04:32:47;;;;;;;1.98;1.88;;;;;;;;;;5039818;28;20053;-87
2023/02/04 04:35:14;;;;;;;2.95;2.30;;;;;;;;;;5034209;28;20409;-88
2023/02/04 04:37:41;;;;;;;2.33;2.13;;;;;;;;;;5032459;28;20057;-87
2023/02/04 04:40:12;;;;;;;18.90;3.53;;;;;;;;;;5033569;28;20563;-87
2023/02/04 04:42:39;;;;;;;2.35;2.15;;;;;;;;;;5033341;28;20137;-86
2023/02/04 04:45:08;;;;;;;2.38;2.20;;;;;;;;;;5033310;28;20056;-86
2023/02/04 04:47:35;;;;;;;2.83;1.80;;;;;;;;;;5034417;28;20056;-87
2023/02/04 04:50:03;;;;;;;2.25;2.15;;;;;;;;;;5034201;28;20046;-87
2023/02/04 04:52:30;;;;;;;3.40;2.05;;;;;;;;;;5033101;28;20077;-87
2023/02/04 04:54:57;;;;;;;3.35;2.33;;;;;;;;;;5033192;28;20390;-87
2023/02/04 04:57:24;;;;;;;1.90;1.80;;;;;;;;;;5033144;28;20046;-87
2023/02/04 04:59:51;;;;;;;2.15;2.00;;;;;;;;;;5032964;28;20056;-87
2023/02/04 05:02:18;;;;;;;1.80;1.70;;;;;;;;;;5033951;28;20383;-87
2023/02/04 05:04:45;;;;;;;3.33;1.67;;;;;;;;;;5033163;28;20056;-87
2023/02/04 05:07:13;;;;;;;1.38;1.38;;;;;;;;;;5033014;28;20075;-87
2023/02/04 05:09:40;;;;;;;3.03;1.70;;;;;;;;;;5033238;28;20046;-87
2023/02/04 05:12:07;;;;;;;2.53;1.90;;;;;;;;;;5032916;28;20060;-87
2023/02/04 05:14:35;;;;;;;2.17;1.67;;;;;;;;;;5032365;28;20148;-87
2023/02/04 05:17:02;;;;;;;1.60;1.23;;;;;;;;;;5032670;28;20382;-87
2023/02/04 05:19:29;;;;;;;2.28;1.77;;;;;;;;;;5033726;28;20100;-87
2023/02/04 05:21:56;;;;;;;1.88;1.38;;;;;;;;;;5032832;28;20053;-87
2023/02/04 05:24:24;;;;;;;1.92;1.40;;;;;;;;;;5033649;28;20064;-86
2023/02/04 05:26:51;;;;;;;2.08;1.52;;;;;;;;;;5033328;28;20053;-87
2023/02/04 05:29:18;;;;;;;5.25;2.03;;;;;;;;;;5033231;28;20061;-86
2023/02/04 05:31:45;;;;;;;2.80;1.73;;;;;;;;;;5032570;28;20160;-87
2023/02/04 05:34:12;;;;;;;1.75;1.50;;;;;;;;;;5032451;28;20072;-86
2023/02/04 05:36:39;;;;;;;1.80;1.50;;;;;;;;;;5032642;28;20045;-87
2023/02/04 05:39:06;;;;;;;1.52;1.42;;;;;;;;;;5031610;28;20053;-87
2023/02/04 05:41:34;;;;;;;1.73;1.42;;;;;;;;;;5032685;28;20136;-87
2023/02/04 05:44:01;;;;;;;1.67;1.58;;;;;;;;;;5035163;28;20045;-87
2023/02/04 05:46:28;;;;;;;1.77;1.58;;;;;;;;;;5037073;28;20055;-87
2023/02/04 05:48:55;;;;;;;1.70;1.60;;;;;;;;;;5032503;28;20049;-87
2023/02/04 05:51:22;;;;;;;1.70;1.60;;;;;;;;;;5032427;28;20088;-87
2023/02/04 05:53:50;;;;;;;3.65;1.75;;;;;;;;;;5032332;28;20049;-87
2023/02/04 05:56:17;;;;;;;1.80;1.70;;;;;;;;;;5032009;28;20077;-87
2023/02/04 05:58:44;;;;;;;3.60;1.60;;;;;;;;;;5032433;28;20088;-87
2023/02/04 06:01:11;;;;;;;1.83;1.73;;;;;;;;;;5033205;28;20045;-86
2023/02/04 06:03:39;;;;;;;2.30;1.65;;;;;;;;;;5032420;28;20132;-87
2023/02/04 06:06:06;;;;;;;1.98;1.88;;;;;;;;;;5033983;28;20072;-86
2023/02/04 06:08:33;;;;;;;15.18;9.02;;;;;;;;;;5034225;28;20532;-85
2023/02/04 06:11:00;;;;;;;14.48;10.70;;;;;;;;;;5032113;28;20137;-87
2023/02/04 06:13:28;;;;;;;7.20;5.07;;;;;;;;;;5032237;28;20053;-86
2023/02/04 06:15:55;;;;;;;10.32;8.75;;;;;;;;;;5032007;28;20092;-87
2023/02/04 06:18:22;;;;;;;4.90;3.35;;;;;;;;;;5031887;28;20052;-87
2023/02/04 06:20:49;;;;;;;2.85;2.10;;;;;;;;;;5032221;28;20088;-87
2023/02/04 06:23:16;;;;;;;2.88;2.67;;;;;;;;;;5031842;28;20064;-87
2023/02/04 06:25:44;;;;;;;3.65;3.33;;;;;;;;;;5031813;28;20501;-87
2023/02/04 06:28:11;;;;;;;3.08;2.30;;;;;;;;;;5033255;28;20050;-87
2023/02/04 06:30:38;;;;;;;5.40;5.00;;;;;;;;;;5033131;28;20046;-87
2023/02/04 06:33:05;;;;;;;3.08;2.88;;;;;;;;;;5031833;28;20041;-87
2023/02/04 06:35:32;;;;;;;4.20;2.60;;;;;;;;;;5032785;28;20216;-87
2023/02/04 06:38:00;;;;;;;2.28;2.08;;;;;;;;;;5031707;28;20046;-87
2023/02/04 06:40:27;;;;;;;3.17;2.20;;;;;;;;;;5031945;28;20049;-87
2023/02/04 06:42:54;;;;;;;1.80;1.70;;;;;;;;;;5032248;28;20436;-87
2023/02/04 06:45:21;;;;;;;5.80;2.22;;;;;;;;;;5032852;28;20051;-87
2023/02/04 06:47:49;;;;;;;1.88;1.77;;;;;;;;;;5031921;28;20060;-87
2023/02/04 06:50:17;;;;;;;4.60;2.17;;;;;;;;;;5033082;28;20050;-87
2023/02/04 06:52:47;;;;;;;2.17;1.90;;;;;;;;;;5036468;28;20065;-87
2023/02/04 06:55:16;;;;;;;1.85;1.67;;;;;;;;;;5035651;28;20084;-87
2023/02/04 06:57:43;;;;;;;4.40;2.47;;;;;;;;;;5042184;28;20136;-87
2023/02/04 07:00:11;;;;;;;1.90;1.80;;;;;;;;;;5039549;28;20049;-87
2023/02/04 07:02:38;;;;;;;2.97;1.50;;;;;;;;;;5036239;28;20041;-86
2023/02/04 07:05:06;;;;;;;1.75;1.55;;;;;;;;;;5036017;28;20123;-86
2023/02/04 07:07:33;;;;;;;2.78;1.58;;;;;;;;;;5036201;28;20087;-86
2023/02/04 07:10:00;;;;;;;2.30;1.40;;;;;;;;;;5036044;28;20497;-86
2023/02/04 07:12:27;;;;;;;1.20;1.20;;;;;;;;;;5036094;28;20053;-86
2023/02/04 07:14:54;;;;;;;2.10;1.77;;;;;;;;;;5035024;28;20057;-87
2023/02/04 07:17:22;;;;;;;3.03;2.80;;;;;;;;;;5035934;28;20045;-87
2023/02/04 07:19:49;;;;;;;1.40;1.33;;;;;;;;;;5035591;28;20064;-87
2023/02/04 07:22:16;;;;;;;2.78;2.58;;;;;;;;;;5035970;28;20065;-87
2023/02/04 07:24:44;;;;;;;4.95;4.38;;;;;;;;;;5034823;28;20064;-87
2023/02/04 07:27:11;;;;;;;1.88;1.30;;;;;;;;;;5034852;28;20050;-86
2023/02/04 07:29:38;;;;;;;3.15;1.58;;;;;;;;;;5034550;28;20417;-87
2023/02/04 07:32:06;;;;;;;6.43;2.20;;;;;;;;;;5034543;28;20060;-85
2023/02/04 07:34:33;;;;;;;2.72;2.53;;;;;;;;;;5048518;28;20053;-86
2023/02/04 07:37:00;;;;;;;4.28;2.65;;;;;;;;;;5055510;28;20056;-86
2023/02/04 07:39:28;;;;;;;2.70;2.00;;;;;;;;;;5055674;28;20119;-87
2023/02/04 07:41:55;;;;;;;3.25;1.92;;;;;;;;;;5054538;28;20045;-87
2023/02/04 07:44:22;;;;;;;5.07;4.70;;;;;;;;;;5054229;28;20057;-87
2023/02/04 07:46:49;;;;;;;2.33;2.13;;;;;;;;;;5054356;28;20040;-87
2023/02/04 07:49:16;;;;;;;4.25;2.50;;;;;;;;;;5055168;28;20052;-87
2023/02/04 07:51:43;;;;;;;2.47;1.73;;;;;;;;;;5054395;28;20045;-87
2023/02/04 07:54:11;;;;;;;1.92;1.60;;;;;;;;;;5053157;28;20481;-87
2023/02/04 07:56:38;;;;;;;2.60;1.30;;;;;;;;;;5052303;28;20049;-87
2023/02/04 07:59:08;;;;;;;2.88;2.20;;;;;;;;;;5053186;28;20053;-88
2023/02/04 08:01:35;;;;;;;1.50;1.40;;;;;;;;;;5053107;28;20073;-86
2023/02/04 08:04:02;;;;;;;5.32;1.63;;;;;;;;;;5054286;28;20053;-87
2023/02/04 08:06:30;;;;;;;2.75;0.98;;;;;;;;;;5055076;28;20059;-87
2023/02/04 08:08:57;;;;;;;5.15;1.80;;;;;;;;;;5056194;28;20045;-87
2023/02/04 08:11:25;;;;;;;4.15;1.40;;;;;;;;;;5065722;28;20053;-87
2023/02/04 08:13:53;;;;;;;1.23;1.17;;;;;;;;;;5055565;28;20098;-87
2023/02/04 08:16:20;;;;;;;2.28;1.40;;;;;;;;;;5055037;28;20062;-87
2023/02/04 08:18:47;;;;;;;1.30;1.15;;;;;;;;;;5053686;28;20111;-87
2023/02/04 08:21:14;;;;;;;1.90;1.80;;;;;;;;;;5054733;28;20060;-87
2023/02/04 08:23:41;;;;;;;3.88;2.08;;;;;;;;;;5053740;28;20049;-87
2023/02/04 08:26:10;;;;;;;3.72;3.17;;;;;;;;;;5052625;28;20048;-87
2023/02/04 08:28:37;;;;;;;8.80;7.60;;;;;;;;;;5053349;28;20057;-86
2023/02/04 08:31:05;;;;;;;17.85;11.70;;;;;;;;;;5050364;28;20071;-86
2023/02/04 08:33:33;;;;;;;3.35;3.00;;;;;;;;;;5052218;28;20049;-87
2023/02/04 08:36:00;;;;;;;2.10;2.00;;;;;;;;;;5052883;28;20055;-87
2023/02/04 08:38:28;;;;;;;3.00;2.00;;;;;;;;;;5053641;28;20124;-87
2023/02/04 08:40:55;;;;;;;4.32;1.50;;;;;;;;;;5053113;28;20416;-86
2023/02/04 08:43:22;;;;;;;2.67;1.60;;;;;;;;;;5053838;28;20503;-87
2023/02/04 08:45:49;;;;;;;1.90;1.70;;;;;;;;;;5054177;28;20049;-86
2023/02/04 08:48:16;;;;;;;1.73;1.63;;;;;;;;;;5053317;28;20068;-87
2023/02/04 08:50:44;;;;;;;3.08;1.90;;;;;;;;;;5053293;28;20124;-86
2023/02/04 08:53:11;;;;;;;2.33;2.13;;;;;;;;;;5054044;28;20051;-87
2023/02/04 08:55:38;;;;;;;2.55;1.80;;;;;;;;;;5053862;28;20059;-87
2023/02/04 08:58:05;;;;;;;1.77;1.67;;;;;;;;;;5053099;28;20477;-87
2023/02/04 09:00:33;;;;;;;1.90;1.70;;;;;;;;;;5052938;28;20092;-87
2023/02/04 09:03:03;;;;;;;2.42;2.22;;;;;;;;;;5053353;28;20424;-87
2023/02/04 09:05:30;;;;;;;2.60;2.40;;;;;;;;;;5052627;28;20049;-87
2023/02/04 09:07:57;;;;;;;2.50;2.35;;;;;;;;;;5052712;28;20045;-87
2023/02/04 09:10:24;;;;;;;2.50;2.05;;;;;;;;;;5052616;28;20485;-87
2023/02/04 09:12:55;;;;;;;1.88;1.77;;;;;;;;;;5052707;28;20052;-87
2023/02/04 09:15:25;;;;;;;3.25;2.17;;;;;;;;;;5052787;28;20421;-87
2023/02/04 09:17:54;;;;;;;4.60;2.50;;;;;;;;;;5053833;28;20052;-87
2023/02/04 09:20:21;;;;;;;3.30;2.70;;;;;;;;;;5053475;28;20485;-87
2023/02/04 09:22:49;;;;;;;3.42;2.90;;;;;;;;;;5054465;28;20109;-87
2023/02/04 09:25:16;;;;;;;3.17;2.97;;;;;;;;;;5058159;28;20052;-87
2023/02/04 09:27:43;;;;;;;2.53;2.40;;;;;;;;;;5054684;28;20056;-87
2023/02/04 09:30:11;;;;;;;3.90;3.60;;;;;;;;;;5052552;28;20098;-87
2023/02/04 09:32:38;;;;;;;3.25;2.40;;;;;;;;;;5053738;28;20041;-88
2023/02/04 09:35:05;;;;;;;1.95;1.85;;;;;;;;;;5051363;28;20048;-86
2023/02/04 09:37:33;;;;;;;2.92;2.05;;;;;;;;;;5052136;28;20044;-87
2023/02/04 09:40:00;;;;;;;1.90;1.80;;;;;;;;;;5051657;28;20390;-87
2023/02/04 09:42:28;;;;;;;1.75;1.65;;;;;;;;;;5051402;28;20037;-88
2023/02/04 09:44:55;;;;;;;1.20;1.10;;;;;;;;;;5052544;28;20051;-87
2023/02/04 09:47:24;;;;;;;2.05;1.10;;;;;;;;;;5052525;28;20493;-87
2023/02/04 09:49:52;;;;;;;1.50;1.30;;;;;;;;;;5053201;28;20608;-87
2023/02/04 09:52:19;;;;;;;2.33;1.45;;;;;;;;;;5052155;28;20041;-87
2023/02/04 09:54:46;;;;;;;1.23;1.20;;;;;;;;;;5052047;28;20052;-87
2023/02/04 09:57:16;;;;;;;1.48;1.00;;;;;;;;;;5053247;28;20528;-87
2023/02/04 09:59:46;;;;;;;4.25;2.60;;;;;;;;;;5052626;28;20061;-87
2023/02/04 10:02:21;;;;;;;2.85;2.63;;;;;;;;;;5051974;28;20128;-87
2023/02/04 10:04:49;;;;;;;1.48;1.38;;;;;;;;;;5053073;28;20057;-87
2023/02/04 10:07:20;;;;;;;2.17;1.30;;;;;;;;;;5051951;28;20048;-87
2023/02/04 10:09:49;;;;;;;1.15;1.05;;;;;;;;;;5053125;28;20412;-87
2023/02/04 10:12:16;;;;;;;1.45;0.68;;;;;;;;;;5051774;28;20044;-87
2023/02/04 10:14:44;;;;;;;2.47;2.28;;;;;;;;;;5053312;28;20143;-87
2023/02/04 10:17:19;;;;;;;6.32;5.13;;;;;;;;;;5053538;28;20064;-87
2023/02/04 10:19:46;;;;;;;5.15;4.68;;;;;;;;;;5053033;28;20394;-87
2023/02/04 10:22:17;;;;;;;5.22;4.18;;;;;;;;;;5053019;28;20053;-87
2023/02/04 10:24:45;;;;;;;2.80;2.40;;;;;;;;;;5052573;28;20064;-87
2023/02/04 10:27:16;;;;;;;1.75;1.00;;;;;;;;;;5056087;28;20054;-87
2023/02/04 10:29:54;;;;;;;16.30;13.10;;;;;;;;;;5055114;28;20048;-87
2023/02/04 10:32:26;;;;;;;1.95;0.70;;;;;;;;;;5053280;28;20047;-87
2023/02/04 10:34:57;;;;;;;0.88;0.50;;;;;;;;;;5055561;28;20048;-85
2023/02/04 10:37:25;;;;;;;0.50;0.50;;;;;;;;;;5062552;28;20372;-87
2023/02/04 10:39:52;;;;;;;0.88;0.50;;;;;;;;;;5062000;28;20044;-87
2023/02/04 10:42:29;;;;;;;0.55;0.55;;;;;;;;;;5056573;28;20040;-87
2023/02/04 10:44:57;;;;;;;2.03;0.93;;;;;;;;;;5056128;28;20045;-87
2023/02/04 10:47:26;;;;;;;0.73;0.73;;;;;;;;;;5055959;28;20049;-87
2023/02/04 10:49:54;;;;;;;0.60;0.50;;;;;;;;;;5056010;28;20055;-87
2023/02/04 10:52:24;;;;;;;0.82;0.77;;;;;;;;;;5056615;28;20052;-87
2023/02/04 10:54:51;;;;;;;0.73;0.73;;;;;;;;;;5056743;28;20053;-87
2023/02/04 10:57:26;;;;;;;1.35;1.25;;;;;;;;;;5056701;28;20507;-86
2023/02/04 10:59:55;;;;;;;5.00;1.15;;;;;;;;;;5055677;28;20485;-86
2023/02/04 11:02:41;;;;;;;1.60;1.42;;;;;;;;;;5055620;28;20064;-86
2023/02/04 11:05:14;;;;;;;0.80;0.80;;;;;;;;;;5059135;28;20057;-86
2023/02/04 11:07:42;;;;;;;1.93;0.47;;;;;;;;;;5060617;28;20052;-86
2023/02/04 11:10:16;;;;;;;1.55;0.63;;;;;;;;;;5055923;28;20049;-87
2023/02/04 11:12:59;;;;;;;0.70;0.50;;;;;;;;;;5055316;28;20052;-87
2023/02/04 11:15:46;;;;;;;0.60;0.60;;;;;;;;;;5055276;28;20413;-86
2023/02/04 11:18:19;;;;;;;0.50;0.30;;;;;;;;;;5056138;28;20346;-86
2023/02/04 11:20:50;;;;;;;1.83;0.60;;;;;;;;;;5055366;28;20045;-87
2023/02/04 11:23:17;;;;;;;1.90;1.17;;;;;;;;;;5056140;28;20048;-87
2023/02/04 11:25:44;;;;;;;1.33;0.82;;;;;;;;;;5055999;28;20059;-87
2023/02/04 11:28:23;;;;;;;0.55;0.47;;;;;;;;;;5055033;28;20060;-87
2023/02/04 11:31:03;;;;;;;2.15;0.98;;;;;;;;;;5055094;28;20059;-87
2023/02/04 11:33:37;;;;;;;0.60;0.60;;;;;;;;;;5056049;28;20080;-87
2023/02/04 11:36:06;;;;;;;3.05;2.83;;;;;;;;;;5054684;28;20063;-87
2023/02/04 11:38:33;;;;;;;6.82;3.55;;;;;;;;;;5055931;28;20048;-86
2023/02/04 11:41:01;;;;;;;9.60;5.28;;;;;;;;;;5054935;28;20050;-87
2023/02/04 11:43:32;;;;;;;1.50;1.00;;;;;;;;;;5054783;28;20056;-87
2023/02/04 11:46:01;;;;;;;39.60;13.73;;;;;;;;;;5056825;28;20055;-86
2023/02/04 11:48:28;;;;;;;5.18;1.83;;;;;;;;;;5055842;28;20045;-86
2023/02/04 11:50:56;;;;;;;4.13;1.98;;;;;;;;;;5063065;28;20063;-86
2023/02/04 11:53:24;;;;;;;6.10;2.30;;;;;;;;;;5060746;28;20077;-87
2023/02/04 11:55:54;;;;;;;0.60;0.60;;;;;;;;;;5055881;28;20096;-87
2023/02/04 11:58:24;;;;;;;5.38;1.15;;;;;;;;;;5054656;28;20102;-86
2023/02/04 12:00:52;;;;;;;4.63;1.58;;;;;;;;;;5054712;28;20102;-87
2023/02/04 12:03:30;;;;;;;3.22;0.80;;;;;;;;;;5054568;28;20060;-87
2023/02/04 12:05:58;;;;;;;0.88;0.82;;;;;;;;;;5054160;28;20055;-87
2023/02/04 12:08:32;;;;;;;0.85;0.77;;;;;;;;;;5054687;28;20516;-87
2023/02/04 12:11:10;;;;;;;1.00;0.80;;;;;;;;;;5054286;28;20044;-87
2023/02/04 12:13:51;;;;;;;1.15;0.60;;;;;;;;;;5054616;28;20417;-87
2023/02/04 12:16:18;;;;;;;3.78;1.08;;;;;;;;;;5055236;28;20088;-86
2023/02/04 12:18:45;;;;;;;1.65;0.68;;;;;;;;;;5054339;28;20057;-86
2023/02/04 12:21:15;;;;;;;1.33;1.02;;;;;;;;;;5055019;28;20512;-87
2023/02/04 12:23:43;;;;;;;5.88;1.23;;;;;;;;;;5054109;28;20558;-87
2023/02/04 12:26:11;;;;;;;6.63;0.80;;;;;;;;;;5054003;28;20051;-87
2023/02/04 12:28:38;;;;;;;20.90;8.45;;;;;;;;;;5054905;28;20072;-87
2023/02/04 12:31:05;;;;;;;2.75;1.85;;;;;;;;;;5056139;28;20057;-86
2023/02/04 12:33:32;;;;;;;2.70;0.80;;;;;;;;;;5055553;28;20193;-85
2023/02/04 12:36:00;;;;;;;1.85;0.90;;;;;;;;;;5055771;28;20409;-86
2023/02/04 12:38:28;;;;;;;1.92;1.13;;;;;;;;;;5054694;28;20040;-86
2023/02/04 12:40:55;;;;;;;32.53;16.63;;;;;;;;;;5054390;28;20061;-86
2023/02/04 12:43:24;;;;;;;2.72;1.80;;;;;;;;;;5055699;28;20049;-86
2023/02/04 12:45:54;;;;;;;1.30;0.95;;;;;;;;;;5055296;28;20489;-86
2023/02/04 12:48:21;;;;;;;1.55;1.45;;;;;;;;;;5055444;28;20056;-85
2023/02/04 12:50:48;;;;;;;1.77;1.30;;;;;;;;;;5054928;28;20049;-86
2023/02/04 12:53:15;;;;;;;1.52;1.25;;;;;;;;;;5054668;28;20061;-86
2023/02/04 12:55:43;;;;;;;1.15;1.05;;;;;;;;;;5054933;28;20044;-86
2023/02/04 12:58:10;;;;;;;1.63;1.30;;;;;;;;;;5055075;28;20474;-86
2023/02/04 13:00:37;;;;;;;4.20;1.20;;;;;;;;;;5055001;28;20131;-86
2023/02/04 13:03:05;;;;;;;1.45;1.13;;;;;;;;;;5059120;28;20127;-86
2023/02/04 13:05:34;;;;;;;1.48;1.10;;;;;;;;;;5063088;28;20053;-86
2023/02/04 13:08:02;;;;;;;2.08;0.90;;;;;;;;;;5055583;28;20049;-86
2023/02/04 13:10:29;;;;;;;3.00;1.15;;;;;;;;;;5054867;28;20386;-86
2023/02/04 13:12:56;;;;;;;1.13;0.80;;;;;;;;;;5054519;28;20053;-85
2023/02/04 13:15:24;;;;;;;1.02;0.68;;;;;;;;;;5054500;28;20485;-86
2023/02/04 13:17:51;;;;;;;0.85;0.70;;;;;;;;;;5054228;28;20048;-86
2023/02/04 13:20:18;;;;;;;2.10;1.40;;;;;;;;;;5052996;28;20052;-86
2023/02/04 13:22:45;;;;;;;1.20;0.88;;;;;;;;;;5053010;28;20072;-86
2023/02/04 13:25:13;;;;;;;0.98;0.73;;;;;;;;;;5053348;28;20154;-86
2023/02/04 13:27:40;;;;;;;9.88;1.77;;;;;;;;;;5053017;28;20080;-86
2023/02/04 13:30:08;;;;;;;1.65;0.70;;;;;;;;;;5052978;28;20405;-86
2023/02/04 13:32:35;;;;;;;3.70;0.68;;;;;;;;;;5057452;28;20084;-86
2023/02/04 13:35:03;;;;;;;0.68;0.45;;;;;;;;;;5052827;28;20049;-85
2023/02/04 13:37:30;;;;;;;0.47;0.47;;;;;;;;;;5052831;28;20059;-86
2023/02/04 13:39:57;;;;;;;0.50;0.32;;;;;;;;;;5052432;28;20045;-85
2023/02/04 13:42:24;;;;;;;2.88;0.70;;;;;;;;;;5052911;28;20049;-86
2023/02/04 13:44:53;;;;;;;1.30;0.77;;;;;;;;;;5052748;28;20048;-86
2023/02/04 13:47:20;;;;;;;5.72;1.02;;;;;;;;;;5052678;28;20063;-86
2023/02/04 13:49:47;;;;;;;0.40;0.40;;;;;;;;;;5052758;28;20374;-86
2023/02/04 13:52:17;;;;;;;0.98;0.50;;;;;;;;;;5052647;28;20060;-86
2023/02/04 13:54:44;;;;;;;0.65;0.50;;;;;;;;;;5052712;28;20498;-85
2023/02/04 13:57:12;;;;;;;1.10;0.40;;;;;;;;;;5052518;28;20572;-85
2023/02/04 13:59:39;;;;;;;0.75;0.50;;;;;;;;;;5053431;28;20045;-86
2023/02/04 14:02:06;;;;;;;5.15;0.80;;;;;;;;;;5056959;28;20409;-87
2023/02/04 14:04:33;;;;;;;5.13;0.57;;;;;;;;;;5060148;28;20083;-86
2023/02/04 14:07:03;;;;;;;2.60;0.90;;;;;;;;;;5059164;28;20048;-87
2023/02/04 14:09:30;;;;;;;2.10;0.70;;;;;;;;;;5059313;28;20408;-87
2023/02/04 14:11:57;;;;;;;1.90;0.90;;;;;;;;;;5059203;28;20044;-86
2023/02/04 14:14:24;;;;;;;0.50;0.50;;;;;;;;;;5059256;28;20084;-86
2023/02/04 14:16:52;;;;;;;1.05;0.40;;;;;;;;;;5065019;28;20068;-86
2023/02/04 14:19:19;;;;;;;0.60;0.30;;;;;;;;;;5069827;28;20049;-86
2023/02/04 14:21:49;;;;;;;2.78;0.70;;;;;;;;;;5058524;28;20056;-85
2023/02/04 14:24:16;;;;;;;1.30;0.50;;;;;;;;;;5057979;28;20048;-86
2023/02/04 14:26:43;;;;;;;0.60;0.50;;;;;;;;;;5058624;28;20048;-87
2023/02/04 14:29:12;;;;;;;1.67;0.50;;;;;;;;;;5061053;28;20048;-87
2023/02/04 14:31:39;;;;;;;1.33;0.70;;;;;;;;;;5059658;28;20082;-87
2023/02/04 14:34:06;;;;;;;1.13;0.98;;;;;;;;;;5059611;28;20451;-88
2023/02/04 14:36:33;;;;;;;1.25;0.85;;;;;;;;;;5058271;28;20060;-88
2023/02/04 14:39:01;;;;;;;0.93;0.50;;;;;;;;;;5060466;28;20450;-87
2023/02/04 14:41:30;;;;;;;2.63;0.80;;;;;;;;;;5059325;28;20052;-87
2023/02/04 14:43:57;;;;;;;0.73;0.60;;;;;;;;;;5056829;28;20045;-87
2023/02/04 14:46:27;;;;;;;0.88;0.80;;;;;;;;;;5061610;28;20044;-87